This is the latest recevied weather packets stored in our database for station/object HS5NMF. If no packets are shown the sender has not sent any weather packets the latest 1 day(s).
| Time | Temp. | Humidity | Pressure | Rain* | Wind** | Luminosity | Snow |
|---|---|---|---|---|---|---|---|
| 1778022637 | 28.33° C | 87% | 978 hPa | - | 0 m/s | 0 W/m² | - |
| 1778022311 | 27.78° C | 89% | 978 hPa | - | 0 m/s | 0 W/m² | - |
| 1778022310 | 27.78° C | - | - | - | 0 m/s | - | - |
| 1778021990 | 27.78° C | 89% | 977 hPa | - | 0 m/s | 0 W/m² | - |
| 1778021665 | 27.22° C | 92% | 977 hPa | - | 0 m/s | 0 W/m² | - |
| 1778021344 | 27.22° C | 91% | 977 hPa | - | 0 m/s | 0 W/m² | - |
| 1778021018 | 27.78° C | 89% | 978 hPa | - | 0 m/s | 0 W/m² | - |
| 1778020696 | 27.78° C | 88% | 977 hPa | - | 0 m/s | 0 W/m² | - |
| 1778020375 | 26.67° C | 97% | 977 hPa | - | 0 m/s | 0 W/m² | - |
| 1778020051 | 27.22° C | 92% | 977 hPa | - | 0 m/s | 0 W/m² | - |
| 1778019728 | 27.78° C | 90% | 977 hPa | - | 0 m/s | 0 W/m² | - |
| 1778019403 | 27.78° C | 89% | 977 hPa | - | 0 m/s | 0 W/m² | - |
| 1778019080 | 27.78° C | 90% | 977 hPa | - | 0 m/s | 0 W/m² | - |
| 1778018757 | 27.78° C | - | - | - | 0 m/s | - | - |
| 1778018757 | 27.78° C | 90% | 977 hPa | - | 0 m/s | 0 W/m² | - |
| 1778018434 | 27.78° C | 89% | 977 hPa | - | 0 m/s | 0 W/m² | - |
| 1778018110 | 27.22° C | 90% | 977 hPa | - | 0 m/s | 0 W/m² | - |
| 1778017785 | 28.33° C | 86% | 977 hPa | - | 0 m/s | - | - |
| 1778017785 | 28.33° C | 86% | 977 hPa | - | 0 m/s | 0 W/m² | - |
| 1778017459 | 27.78° C | 87% | 977 hPa | - | 0 m/s | 0 W/m² | - |
| 1778017136 | 28.33° C | 86% | 977 hPa | - | 0 m/s | 0 W/m² | - |
| 1778016815 | 28.33° C | 85% | 977 hPa | - | 0 m/s | 0 W/m² | - |
| 1778016492 | 27.78° C | 88% | 977 hPa | - | 0 m/s | 0 W/m² | - |
| 1778016168 | 27.78° C | 88% | 977 hPa | - | 0 m/s | 0 W/m² | - |
| 1778015844 | 27.78° C | 87% | 977 hPa | - | 0 m/s | 0 W/m² | - |
* Rain since midnight (hover to see other rain measurements)
** Current wind speed in m/s (hover to see current wind gust speed)